Time;durP1;ratioP1;P1;durP2;ratioP2;P2;SDS_P1;SDS_P2;PMS_P1;PMS_P2;Temp;Humidity;BMP_temperature;BMP_pressure;BME280_temperature;BME280_humidity;BME280_pressure;Samples;Min_cycle;Max_cycle;Signal;HPM_P1;HPM_P2
2021/12/03 00:00:21;;;;;;;10.80;8.28;;;;;;;2.53;77.93;99044.81;1704064;84;21017;-70
2021/12/03 00:02:48;;;;;;;12.50;8.13;;;;;;;2.53;77.94;99045.28;1675430;84;21041;-70
2021/12/03 00:05:14;;;;;;;11.93;8.38;;;;;;;2.52;77.96;99044.45;1658931;86;21096;-70
2021/12/03 00:07:42;;;;;;;12.13;8.00;;;;;;;2.52;77.97;99045.75;1658963;86;21068;-70
2021/12/03 00:10:11;;;;;;;11.15;7.97;;;;;;;2.51;78.00;99044.53;1658925;86;22538;-70
2021/12/03 00:12:38;;;;;;;13.62;8.03;;;;;;;2.52;78.05;99041.02;1659067;86;21092;-70
2021/12/03 00:15:07;;;;;;;11.10;8.13;;;;;;;2.53;78.05;99029.64;1658836;84;21052;-71
2021/12/03 00:17:33;;;;;;;9.43;6.62;;;;;;;2.54;78.07;99029.53;1665551;84;21018;-71
2021/12/03 00:20:00;;;;;;;10.08;7.33;;;;;;;2.56;78.02;99031.56;1696381;84;20969;-70
2021/12/03 00:22:27;;;;;;;12.10;7.50;;;;;;;2.57;77.97;99035.00;1704404;83;21755;-70
2021/12/03 00:24:54;;;;;;;12.15;6.80;;;;;;;2.56;77.87;99030.73;1729502;82;21649;-71
2021/12/03 00:27:20;;;;;;;9.75;6.15;;;;;;;2.52;77.84;99028.81;1703714;82;20996;-70
2021/12/03 00:29:47;;;;;;;10.60;7.28;;;;;;;2.51;77.85;99030.19;1732850;82;21060;-70
2021/12/03 00:32:13;;;;;;;11.22;7.45;;;;;;;2.52;77.85;99031.89;1703649;82;20995;-71
2021/12/03 00:34:39;;;;;;;10.08;6.97;;;;;;;2.51;77.79;99032.80;1733011;82;22811;-70
2021/12/03 00:37:05;;;;;;;9.15;6.17;;;;;;;2.50;77.71;99029.83;1709657;82;21028;-70
2021/12/03 00:39:32;;;;;;;8.05;6.47;;;;;;;2.48;77.70;99028.64;1703461;84;20976;-70
2021/12/03 00:42:01;;;;;;;10.20;6.70;;;;;;;2.44;77.72;99023.28;1703278;84;21352;-70
2021/12/03 00:44:29;;;;;;;9.15;6.55;;;;;;;2.42;77.71;99020.42;1703335;84;21130;-70
2021/12/03 00:46:58;;;;;;;9.30;6.95;;;;;;;2.40;77.76;99019.66;1703411;84;21498;-70
2021/12/03 00:49:24;;;;;;;9.30;6.55;;;;;;;2.40;77.83;99019.66;1703509;84;21058;-70
2021/12/03 00:51:51;;;;;;;10.28;7.20;;;;;;;2.40;77.89;99017.06;1703301;83;21363;-70
2021/12/03 00:54:17;;;;;;;10.38;7.08;;;;;;;2.40;77.89;99018.36;1704487;82;21028;-70
2021/12/03 00:56:44;;;;;;;8.83;6.25;;;;;;;2.41;77.85;99025.23;1703267;83;20976;-71
2021/12/03 00:59:10;;;;;;;8.75;6.53;;;;;;;2.39;77.83;99020.61;1727477;81;22431;-70
2021/12/03 01:01:38;;;;;;;10.93;7.08;;;;;;;2.38;77.82;99018.47;1727046;82;21009;-71
2021/12/03 01:04:05;;;;;;;10.88;6.95;;;;;;;2.37;77.86;99023.78;1720114;82;21054;-70
2021/12/03 01:06:32;;;;;;;11.43;7.95;;;;;;;2.34;77.86;99025.31;1703281;84;20984;-70
2021/12/03 01:08:59;;;;;;;10.63;7.20;;;;;;;2.33;77.95;99033.59;1710926;84;21389;-71
2021/12/03 01:11:25;;;;;;;9.58;7.22;;;;;;;2.32;78.00;99029.33;1710490;84;22236;-70
2021/12/03 01:13:53;;;;;;;11.95;7.35;;;;;;;2.34;78.03;99034.42;1732826;82;20956;-70
2021/12/03 01:16:20;;;;;;;12.53;7.60;;;;;;;2.34;78.02;99037.03;1732618;82;20945;-70
2021/12/03 01:18:47;;;;;;;9.10;7.53;;;;;;;2.33;78.04;99038.80;1732340;82;21494;-70
2021/12/03 01:21:14;;;;;;;10.25;7.10;;;;;;;2.34;78.03;99039.17;1728436;83;20973;-70
2021/12/03 01:23:41;;;;;;;10.05;7.08;;;;;;;2.32;78.00;99038.44;1728415;81;21798;-71
2021/12/03 01:26:07;;;;;;;9.45;6.47;;;;;;;2.29;77.97;99035.55;1700990;81;21606;-72
2021/12/03 01:28:34;;;;;;;9.93;6.80;;;;;;;2.27;77.99;99038.73;1701370;83;20957;-70
2021/12/03 01:31:00;;;;;;;9.60;6.85;;;;;;;2.25;78.06;99031.50;1700446;83;20992;-70
2021/12/03 01:33:26;;;;;;;12.73;7.60;;;;;;;2.24;78.17;99030.30;1700843;84;21507;-70
2021/12/03 01:35:53;;;;;;;11.90;8.08;;;;;;;2.23;78.24;99024.73;1700567;84;22213;-70
2021/12/03 01:38:19;;;;;;;11.43;7.50;;;;;;;2.21;78.30;99024.80;1700618;84;20960;-71
2021/12/03 01:40:46;;;;;;;11.12;7.53;;;;;;;2.21;78.39;99018.76;1700443;84;21071;-70
2021/12/03 01:43:20;;;;;;;12.85;7.30;;;;;;;2.21;78.46;99018.29;1701109;83;21391;-71
2021/12/03 01:45:42;;;;;;;13.50;9.38;;;;;;;2.24;78.58;99019.41;1729579;82;21339;-70
2021/12/03 01:48:08;;;;;;;10.63;8.23;;;;;;;2.26;78.63;99026.64;1729940;83;21808;-70
2021/12/03 01:50:39;;;;;;;13.58;9.65;;;;;;;2.28;78.75;99017.42;1729607;83;21107;-70
2021/12/03 01:53:07;;;;;;;17.65;11.73;;;;;;;2.32;78.80;99008.48;1729989;83;21000;-70
2021/12/03 01:55:34;;;;;;;16.97;13.65;;;;;;;2.35;78.81;99007.43;1729714;83;21028;-70
2021/12/03 01:58:00;;;;;;;31.97;21.82;;;;;;;2.39;78.79;99011.48;1730079;83;20992;-70
2021/12/03 02:00:34;;;;;;;25.43;18.42;;;;;;;2.41;78.77;99010.44;1725482;82;21801;-70
2021/12/03 02:03:01;;;;;;;15.95;10.15;;;;;;;2.43;78.75;99001.23;1729919;83;21412;-70
2021/12/03 02:05:27;;;;;;;13.65;8.68;;;;;;;2.45;78.72;99005.88;1729730;83;21027;-71
2021/12/03 02:07:54;;;;;;;13.70;9.13;;;;;;;2.47;78.70;99017.02;1724088;82;21055;-70
2021/12/03 02:10:22;;;;;;;10.63;7.40;;;;;;;2.48;78.71;99022.12;1716844;83;21374;-70
2021/12/03 02:12:48;;;;;;;12.78;7.80;;;;;;;2.50;78.70;99022.84;1700470;84;22284;-70
2021/12/03 02:15:15;;;;;;;13.88;8.20;;;;;;;2.51;78.70;99020.63;1700455;84;21039;-70
2021/12/03 02:17:43;;;;;;;11.70;8.05;;;;;;;2.53;78.71;99026.56;1706569;83;21003;-70
2021/12/03 02:20:11;;;;;;;11.80;8.03;;;;;;;2.54;78.65;99028.70;1729602;83;20960;-70
2021/12/03 02:22:38;;;;;;;13.18;8.15;;;;;;;2.55;78.65;99026.45;1729766;83;20995;-70
2021/12/03 02:25:06;;;;;;;14.30;7.92;;;;;;;2.55;78.65;99036.41;1711843;82;22793;-70
2021/12/03 02:27:33;;;;;;;15.28;8.03;;;;;;;2.56;78.66;99036.77;1703962;83;20994;-70
2021/12/03 02:29:59;;;;;;;15.28;10.82;;;;;;;2.58;78.65;99028.38;1704295;84;20961;-70
2021/12/03 02:32:26;;;;;;;15.28;9.45;;;;;;;2.60;78.58;99032.17;1704005;84;21071;-71
2021/12/03 02:34:52;;;;;;;13.83;9.65;;;;;;;2.59;78.51;99023.99;1674256;84;21041;-70
2021/12/03 02:37:19;;;;;;;12.85;9.23;;;;;;;2.57;78.43;99028.48;1675775;85;22194;-70
2021/12/03 02:39:45;;;;;;;10.63;7.72;;;;;;;2.55;78.40;99023.85;1675871;85;21474;-70
2021/12/03 02:42:11;;;;;;;11.90;8.03;;;;;;;2.55;78.38;99021.25;1675715;85;21008;-70
2021/12/03 02:44:37;;;;;;;16.40;9.90;;;;;;;2.54;78.29;99022.19;1675941;85;20985;-70
2021/12/03 02:47:04;;;;;;;19.77;13.18;;;;;;;2.52;78.21;99011.04;1631063;85;21420;-70
2021/12/03 02:49:39;;;;;;;59.60;28.60;;;;;;;2.49;78.13;99008.63;1675758;85;21914;-70
2021/12/03 02:52:07;;;;;;;40.75;22.60;;;;;;;2.47;78.12;99007.89;1655508;85;21039;-70
2021/12/03 02:54:33;;;;;;;22.82;12.35;;;;;;;2.43;78.09;99012.96;1670588;86;20975;-70
2021/12/03 02:57:01;;;;;;;13.20;9.00;;;;;;;2.40;78.08;99010.07;1670451;86;21048;-70
2021/12/03 02:59:28;;;;;;;15.18;8.68;;;;;;;2.37;78.04;99013.37;1670531;86;21029;-70
2021/12/03 03:01:54;;;;;;;12.82;8.13;;;;;;;2.33;78.01;99010.14;1670453;85;22872;-70
2021/12/03 03:04:21;;;;;;;10.23;7.87;;;;;;;2.29;78.02;99001.69;1695586;84;20954;-70
2021/12/03 03:06:47;;;;;;;13.68;8.13;;;;;;;2.25;78.01;99006.75;1704207;84;21083;-70
2021/12/03 03:09:14;;;;;;;14.95;9.30;;;;;;;2.22;78.03;99001.75;1685396;84;21420;-70
2021/12/03 03:11:41;;;;;;;11.48;8.30;;;;;;;2.19;78.01;98995.89;1689274;84;21018;-70
2021/12/03 03:14:08;;;;;;;15.18;8.18;;;;;;;2.19;78.01;99003.70;1699600;83;21847;-71
2021/12/03 03:16:34;;;;;;;12.03;8.05;;;;;;;2.19;78.03;99008.45;1689545;83;21642;-70
2021/12/03 03:19:14;;;;;;;13.35;9.30;;;;;;;2.19;78.05;99001.94;1679936;84;21040;-70
2021/12/03 03:21:40;;;;;;;17.73;12.00;;;;;;;2.20;78.01;99002.30;1703963;84;21369;-70
2021/12/03 03:24:07;;;;;;;15.20;10.40;;;;;;;2.17;78.06;98992.56;1704307;83;21092;-70
2021/12/03 03:26:38;;;;;;;11.43;8.65;;;;;;;2.16;78.12;98989.13;1678337;84;22226;-70
2021/12/03 03:29:06;;;;;;;13.88;9.13;;;;;;;2.14;78.21;98993.61;1659029;86;21033;-71
2021/12/03 03:31:33;;;;;;;13.90;9.33;;;;;;;2.13;78.29;98978.92;1658905;86;20985;-70
2021/12/03 03:34:00;;;;;;;15.55;10.48;;;;;;;2.15;78.39;98982.72;1658864;86;21468;-70
2021/12/03 03:36:27;;;;;;;13.00;9.28;;;;;;;2.16;78.50;98986.99;1658956;86;21021;-70
2021/12/03 03:38:53;;;;;;;17.00;9.28;;;;;;;2.18;78.55;98991.16;1658897;86;21786;-70
2021/12/03 03:41:19;;;;;;;13.35;9.15;;;;;;;2.20;78.56;98982.76;1658735;86;20957;-70
2021/12/03 03:43:45;;;;;;;16.62;10.50;;;;;;;2.22;78.61;98983.52;1688857;84;21516;-70
2021/12/03 03:46:12;;;;;;;15.95;10.70;;;;;;;2.24;78.67;98966.00;1704077;84;20950;-70
2021/12/03 03:48:38;;;;;;;15.93;9.85;;;;;;;2.27;78.75;98967.09;1704173;84;21009;-70
2021/12/03 03:51:05;;;;;;;16.48;9.13;;;;;;;2.29;78.78;98961.30;1704113;84;21832;-70
2021/12/03 03:53:31;;;;;;;14.30;9.65;;;;;;;2.33;78.87;98966.32;1681948;84;21437;-70
2021/12/03 03:55:58;;;;;;;13.15;9.58;;;;;;;2.34;78.89;98960.17;1704108;84;20989;-71
2021/12/03 03:58:24;;;;;;;14.10;8.90;;;;;;;2.37;78.93;98959.95;1704092;84;20985;-71
2021/12/03 04:00:51;;;;;;;13.75;9.15;;;;;;;2.40;78.94;98955.83;1702946;83;21461;-70
2021/12/03 04:03:17;;;;;;;14.87;10.05;;;;;;;2.43;78.96;98951.73;1704137;84;21737;-70
2021/12/03 04:05:44;;;;;;;14.05;9.45;;;;;;;2.45;78.95;98953.75;1704050;83;20995;-70
2021/12/03 04:08:10;;;;;;;14.20;9.55;;;;;;;2.47;78.95;98948.79;1704097;84;21413;-70
2021/12/03 04:10:37;;;;;;;13.98;9.38;;;;;;;2.51;79.07;98942.89;1704048;83;21009;-70
2021/12/03 04:13:03;;;;;;;15.53;9.00;;;;;;;2.54;79.07;98937.48;1704263;84;20993;-70
2021/12/03 04:15:31;;;;;;;12.03;8.30;;;;;;;2.58;79.14;98931.94;1704210;83;20941;-70
2021/12/03 04:17:58;;;;;;;13.28;7.65;;;;;;;2.64;79.11;98935.06;1702590;83;20977;-70
2021/12/03 04:20:24;;;;;;;12.30;7.78;;;;;;;2.66;79.04;98931.88;1697631;84;21843;-70
2021/12/03 04:22:52;;;;;;;11.05;7.72;;;;;;;2.70;79.00;98938.09;1685901;84;21704;-71
2021/12/03 04:25:21;;;;;;;11.63;7.05;;;;;;;2.73;78.95;98940.95;1679633;84;21048;-69
2021/12/03 04:27:47;;;;;;;12.82;7.30;;;;;;;2.78;78.87;98944.05;1681681;84;22169;-69
2021/12/03 04:30:23;;;;;;;10.40;6.95;;;;;;;2.86;78.84;98940.44;1681730;84;20947;-69
2021/12/03 04:32:51;;;;;;;10.32;6.90;;;;;;;2.94;78.66;98938.59;1673613;84;20960;-69
2021/12/03 04:35:18;;;;;;;9.83;6.25;;;;;;;3.00;78.42;98940.78;1673213;85;21471;-69
2021/12/03 04:37:44;;;;;;;10.38;6.37;;;;;;;3.06;78.22;98938.55;1692585;84;21094;-69
2021/12/03 04:40:13;;;;;;;9.40;6.40;;;;;;;3.11;77.94;98930.41;1670973;85;22206;-69
2021/12/03 04:42:39;;;;;;;9.53;5.75;;;;;;;3.17;77.64;98931.25;1673523;85;21000;-69
2021/12/03 04:45:08;;;;;;;9.55;5.90;;;;;;;3.19;77.31;98935.91;1673551;84;21048;-69
2021/12/03 04:47:35;;;;;;;9.30;5.70;;;;;;;3.17;77.02;98927.34;1653870;84;21112;-69
2021/12/03 04:50:05;;;;;;;9.45;5.60;;;;;;;3.21;76.84;98938.41;1673572;85;21428;-71
2021/12/03 04:52:32;;;;;;;8.90;5.50;;;;;;;3.20;76.63;98934.97;1693005;84;21919;-68
2021/12/03 04:54:58;;;;;;;8.78;5.80;;;;;;;3.21;76.52;98934.49;1681481;85;21038;-69
2021/12/03 04:57:24;;;;;;;7.50;5.20;;;;;;;3.21;76.34;98928.80;1652463;85;21087;-69
2021/12/03 04:59:51;;;;;;;11.15;5.20;;;;;;;3.21;76.23;98932.72;1662805;84;21412;-69
2021/12/03 05:02:19;;;;;;;8.93;5.65;;;;;;;3.20;76.09;98924.53;1681542;85;21070;-70
2021/12/03 05:04:47;;;;;;;7.65;4.90;;;;;;;3.20;76.00;98918.01;1673613;85;21845;-69
2021/12/03 05:07:27;;;;;;;8.53;5.50;;;;;;;3.19;75.84;98920.26;1674076;85;20972;-71
2021/12/03 05:09:45;;;;;;;9.73;4.97;;;;;;;3.20;75.75;98915.88;1666088;84;21042;-71
2021/12/03 05:12:11;;;;;;;8.48;5.00;;;;;;;3.19;75.65;98913.73;1681351;84;20967;-69
2021/12/03 05:14:38;;;;;;;8.08;5.17;;;;;;;3.20;75.60;98915.40;1646290;87;21016;-70
2021/12/03 05:17:05;;;;;;;11.38;5.45;;;;;;;3.18;75.47;98914.65;1653774;86;21832;-70
2021/12/03 05:19:33;;;;;;;9.75;4.92;;;;;;;3.16;75.41;98908.72;1666375;84;21072;-68
2021/12/03 05:22:00;;;;;;;6.92;4.75;;;;;;;3.13;75.33;98912.86;1673561;85;21451;-68
2021/12/03 05:24:27;;;;;;;8.73;5.53;;;;;;;3.10;75.29;98920.92;1670771;84;21071;-69
2021/12/03 05:26:53;;;;;;;9.40;5.60;;;;;;;3.08;75.29;98921.47;1689611;83;21404;-69
2021/12/03 05:29:20;;;;;;;8.25;4.83;;;;;;;3.06;75.24;98925.50;1700697;83;22271;-70
2021/12/03 05:31:46;;;;;;;9.53;5.47;;;;;;;3.04;75.25;98926.56;1695758;82;21001;-71
2021/12/03 05:34:15;;;;;;;8.18;5.17;;;;;;;3.02;75.23;98927.98;1712348;82;20997;-70
2021/12/03 05:36:41;;;;;;;8.45;5.03;;;;;;;3.01;75.25;98928.93;1688682;83;20973;-68
2021/12/03 05:39:07;;;;;;;8.18;5.40;;;;;;;3.01;75.20;98926.80;1691335;84;21409;-68
2021/12/03 05:41:34;;;;;;;8.53;5.00;;;;;;;2.97;75.15;98922.25;1682814;83;22234;-69
2021/12/03 05:44:01;;;;;;;9.03;5.65;;;;;;;2.95;75.16;98912.40;1699173;83;20961;-67
2021/12/03 05:46:29;;;;;;;9.05;5.60;;;;;;;2.91;75.14;98908.36;1677017;84;21056;-68
2021/12/03 05:48:56;;;;;;;9.13;5.50;;;;;;;2.87;75.10;98910.33;1683556;83;21056;-68
2021/12/03 05:51:25;;;;;;;7.95;5.40;;;;;;;2.83;75.10;98913.28;1683467;85;21408;-67
2021/12/03 05:53:51;;;;;;;8.48;5.12;;;;;;;2.78;75.13;98908.38;1683639;85;21798;-67
2021/12/03 05:56:18;;;;;;;8.08;5.17;;;;;;;2.75;75.16;98909.91;1683465;85;21499;-67
2021/12/03 05:58:45;;;;;;;8.75;5.55;;;;;;;2.71;75.14;98911.55;1685648;82;21074;-68
2021/12/03 06:01:11;;;;;;;9.05;5.37;;;;;;;2.68;75.15;98909.97;1681139;83;21122;-68
2021/12/03 06:03:38;;;;;;;7.62;4.90;;;;;;;2.65;75.22;98912.80;1669016;84;21083;-67
2021/12/03 06:06:04;;;;;;;11.45;5.70;;;;;;;2.66;75.28;98914.94;1683507;83;21883;-68
2021/12/03 06:08:30;;;;;;;9.00;5.78;;;;;;;2.64;75.30;98909.00;1683561;85;21345;-68
2021/12/03 06:10:57;;;;;;;10.35;6.33;;;;;;;2.62;75.40;98908.28;1683324;84;21008;-68
2021/12/03 06:13:23;;;;;;;8.63;5.75;;;;;;;2.61;75.58;98906.15;1683237;85;20977;-70
2021/12/03 06:15:50;;;;;;;9.08;6.17;;;;;;;2.63;75.77;98904.26;1696049;83;21467;-68
2021/12/03 06:18:18;;;;;;;13.20;8.03;;;;;;;2.68;75.90;98913.88;1684423;83;21882;-68
2021/12/03 06:20:44;;;;;;;20.05;13.90;;;;;;;2.73;76.01;98915.70;1691816;83;21392;-68
2021/12/03 06:23:10;;;;;;;14.43;8.70;;;;;;;2.76;76.05;98915.48;1712151;83;20950;-68
2021/12/03 06:25:38;;;;;;;22.90;15.05;;;;;;;2.80;76.09;98911.73;1708874;83;21005;-68
2021/12/03 06:28:04;;;;;;;13.35;8.88;;;;;;;2.84;76.15;98913.64;1698591;84;20965;-68
2021/12/03 06:30:31;;;;;;;12.07;8.18;;;;;;;2.85;76.14;98909.61;1631189;86;21857;-68
2021/12/03 06:32:58;;;;;;;25.60;15.85;;;;;;;2.89;76.14;98918.05;1629897;87;21081;-68
2021/12/03 06:35:24;;;;;;;14.87;10.28;;;;;;;2.91;76.17;98912.27;1647760;85;20976;-68
2021/12/03 06:37:51;;;;;;;14.40;10.00;;;;;;;2.94;76.19;98909.91;1644981;87;20994;-68
2021/12/03 06:40:23;;;;;;;20.40;13.03;;;;;;;2.95;76.26;98914.17;1644976;87;21198;-68
2021/12/03 06:42:49;;;;;;;22.32;13.55;;;;;;;3.00;76.45;98910.31;1644401;87;21873;-69
2021/12/03 06:45:16;;;;;;;16.57;9.30;;;;;;;3.09;76.64;98903.13;1650648;86;21068;-68
2021/12/03 06:47:42;;;;;;;12.00;7.35;;;;;;;3.19;76.72;98901.99;1656563;84;21080;-68
2021/12/03 06:50:10;;;;;;;9.80;6.62;;;;;;;3.29;76.92;98909.98;1687481;84;20985;-68
2021/12/03 06:52:39;;;;;;;12.78;8.23;;;;;;;3.41;77.05;98906.00;1686945;84;21017;-69
2021/12/03 06:57:41;;;;;;;10.25;6.75;;;;;;;3.57;77.00;98900.49;1666939;84;21488;-68
2021/12/03 07:00:09;;;;;;;10.08;6.17;;;;;;;3.62;76.97;98906.66;1665890;84;21014;-67
2021/12/03 07:02:37;;;;;;;10.78;6.12;;;;;;;3.65;76.94;98911.64;1701300;84;21014;-68
2021/12/03 07:05:07;;;;;;;10.55;6.20;;;;;;;3.66;77.06;98912.83;1690589;84;21045;-67
2021/12/03 07:07:34;;;;;;;9.53;6.40;;;;;;;3.67;77.37;98910.61;1695406;83;22490;-68
2021/12/03 07:10:03;;;;;;;9.18;6.30;;;;;;;3.68;77.57;98906.22;1698495;84;20954;-68
2021/12/03 07:12:30;;;;;;;8.70;6.37;;;;;;;3.69;77.93;98913.10;1693818;84;20977;-68
2021/12/03 07:14:57;;;;;;;8.50;6.28;;;;;;;3.72;78.17;98911.09;1694410;84;21116;-67
2021/12/03 07:17:25;;;;;;;9.05;6.17;;;;;;;3.74;78.40;98913.10;1699048;84;21531;-67
2021/12/03 07:19:56;;;;;;;9.95;6.33;;;;;;;3.79;78.79;98906.25;1700744;83;21798;-68
2021/12/03 07:22:20;;;;;;;10.40;6.92;;;;;;;3.86;78.84;98905.29;1690213;84;20962;-67
2021/12/03 07:24:46;;;;;;;10.38;7.22;;;;;;;3.90;78.95;98900.21;1681747;84;21112;-66
2021/12/03 07:27:13;;;;;;;8.03;6.17;;;;;;;3.97;79.04;98907.48;1705581;83;21205;-69
2021/12/03 07:29:40;;;;;;;11.40;8.20;;;;;;;4.04;79.18;98910.44;1720174;83;20955;-71
2021/12/03 07:32:07;;;;;;;10.45;7.97;;;;;;;4.11;79.23;98909.50;1709661;83;21892;-72
2021/12/03 07:34:34;;;;;;;13.32;8.48;;;;;;;4.19;79.20;98909.28;1696114;83;21370;-74
2021/12/03 07:37:00;;;;;;;10.50;7.53;;;;;;;4.27;79.16;98903.47;1702463;83;20970;-74
2021/12/03 07:39:27;;;;;;;11.53;8.15;;;;;;;4.35;79.26;98904.20;1706297;81;21246;-73
2021/12/03 07:41:53;;;;;;;12.15;9.13;;;;;;;4.44;79.37;98909.98;1714852;83;20994;-76
2021/12/03 07:44:20;;;;;;;8.95;6.83;;;;;;;4.53;79.59;98916.64;1716624;83;22199;-72
2021/12/03 07:46:47;;;;;;;12.20;8.90;;;;;;;4.64;79.69;98912.39;1712308;82;21041;-73
2021/12/03 07:49:14;;;;;;;14.85;9.38;;;;;;;4.72;79.71;98909.50;1701249;83;21371;-74
2021/12/03 07:51:41;;;;;;;11.00;8.50;;;;;;;4.79;79.80;98912.48;1706988;81;21257;-73
2021/12/03 07:54:07;;;;;;;9.20;7.72;;;;;;;4.83;79.82;98912.61;1713194;83;21005;-73
2021/12/03 07:56:35;;;;;;;9.48;8.40;;;;;;;4.89;79.88;98918.16;1725365;82;21089;-73
2021/12/03 07:59:03;;;;;;;12.55;9.90;;;;;;;4.94;79.98;98914.38;1719027;81;20970;-74
2021/12/03 08:01:31;;;;;;;13.25;9.08;;;;;;;4.97;80.12;98906.27;1716749;83;20994;-74
2021/12/03 08:03:58;;;;;;;12.40;9.08;;;;;;;5.02;80.18;98905.41;1696351;83;21010;-74
2021/12/03 08:06:25;;;;;;;12.10;9.43;;;;;;;5.08;80.34;98898.38;1718432;83;21405;-73
2021/12/03 08:08:51;;;;;;;12.30;9.88;;;;;;;5.15;80.44;98900.88;1725363;82;22238;-74
2021/12/03 08:11:19;;;;;;;11.05;9.40;;;;;;;5.21;80.54;98902.14;1725389;82;21006;-73
2021/12/03 08:13:47;;;;;;;12.00;10.13;;;;;;;5.27;80.59;98909.03;1725387;82;21002;-75
2021/12/03 08:16:14;;;;;;;12.58;10.48;;;;;;;5.34;80.84;98912.83;1723554;83;20981;-76
2021/12/03 08:18:40;;;;;;;14.95;11.28;;;;;;;5.40;81.01;98904.48;1725109;83;20966;-75
2021/12/03 08:21:07;;;;;;;15.68;11.08;;;;;;;5.48;81.10;98909.55;1737566;81;22897;-77
2021/12/03 08:23:33;;;;;;;14.87;11.10;;;;;;;5.55;81.30;98919.89;1725377;83;20990;-74
2021/12/03 08:26:00;;;;;;;15.58;12.30;;;;;;;5.62;81.44;98899.62;1717176;82;21405;-73
2021/12/03 08:28:27;;;;;;;16.67;12.82;;;;;;;5.73;81.59;98897.42;1683382;85;21009;-72
2021/12/03 08:30:54;;;;;;;17.42;11.80;;;;;;;5.84;81.70;98899.15;1691043;83;21002;-73
2021/12/03 08:33:22;;;;;;;14.43;11.33;;;;;;;5.94;81.67;98900.90;1702926;83;21532;-74
2021/12/03 08:35:48;;;;;;;17.98;12.13;;;;;;;6.06;81.67;98900.34;1705950;82;20981;-75
2021/12/03 08:38:15;;;;;;;19.05;11.90;;;;;;;6.19;81.68;98900.16;1700662;83;21079;-73
2021/12/03 08:40:41;;;;;;;16.02;12.23;;;;;;;6.28;81.57;98896.28;1685595;83;21412;-74
2021/12/03 08:43:08;;;;;;;15.23;11.45;;;;;;;6.40;81.47;98878.66;1693307;83;21012;-73
2021/12/03 08:45:36;;;;;;;17.10;11.25;;;;;;;6.53;81.49;98875.31;1698139;82;22222;-74
2021/12/03 08:48:05;;;;;;;19.00;11.20;;;;;;;6.68;81.32;98881.03;1689449;82;21411;-74
2021/12/03 08:56:42;;;;;;;15.23;10.25;;;;;;;6.93;80.49;98861.33;1646565;84;21437;-73
2021/12/03 08:59:08;;;;;;;16.97;10.30;;;;;;;6.98;80.32;98860.94;1701835;83;21683;-72
2021/12/03 09:01:35;;;;;;;15.48;9.93;;;;;;;7.04;80.14;98859.05;1686990;83;21092;-74
2021/12/03 09:04:01;;;;;;;13.72;9.78;;;;;;;7.12;80.02;98860.52;1681799;84;21056;-72
2021/12/03 09:06:28;;;;;;;14.90;9.93;;;;;;;7.21;79.78;98846.58;1696986;83;21008;-72
2021/12/03 09:08:54;;;;;;;15.30;8.55;;;;;;;7.32;79.68;98845.13;1711495;83;21091;-71
2021/12/03 09:11:22;;;;;;;13.25;9.58;;;;;;;7.41;79.25;98852.17;1711950;82;22196;-73
2021/12/03 09:13:51;;;;;;;15.68;9.13;;;;;;;7.51;79.01;98839.52;1710898;83;21464;-72
2021/12/03 09:16:18;;;;;;;13.98;10.28;;;;;;;7.62;78.68;98834.10;1710880;83;21013;-72
2021/12/03 09:18:46;;;;;;;12.95;9.83;;;;;;;7.72;78.33;98834.91;1710608;82;21005;-70
2021/12/03 09:21:17;;;;;;;15.32;11.53;;;;;;;7.82;78.07;98821.30;1711903;83;21009;-68
2021/12/03 09:24:03;;;;;;;15.20;10.20;;;;;;;7.92;77.95;98810.27;1695596;82;21853;-71
2021/12/03 09:26:19;;;;;;;14.35;10.58;;;;;;;8.03;77.77;98806.63;1690621;82;20988;-75
2021/12/03 09:28:51;;;;;;;16.00;11.45;;;;;;;8.14;77.41;98802.50;1702721;83;21517;-71
2021/12/03 09:31:18;;;;;;;13.62;9.10;;;;;;;8.27;77.32;98808.25;1694879;83;21506;-71
2021/12/03 09:33:48;;;;;;;13.98;8.25;;;;;;;8.41;76.84;98804.84;1717072;83;21057;-70
2021/12/03 09:36:14;;;;;;;10.98;7.45;;;;;;;8.49;76.30;98791.30;1695138;83;21753;-71
2021/12/03 09:38:40;;;;;;;12.10;7.08;;;;;;;8.51;75.83;98789.34;1688143;85;20945;-72
2021/12/03 09:41:11;;;;;;;12.73;7.35;;;;;;;8.50;75.60;98789.00;1718318;83;21007;-72
2021/12/03 09:43:41;;;;;;;15.13;7.35;;;;;;;8.49;75.52;98795.70;1723381;83;21020;-73
2021/12/03 09:46:16;;;;;;;12.58;7.42;;;;;;;8.48;75.48;98794.05;1723460;83;21114;-73
2021/12/03 09:51:05;;;;;;;11.68;6.42;;;;;;;8.52;75.46;98771.26;1709955;82;20879;-72
2021/12/03 09:56:17;;;;;;;11.28;6.47;;;;;;;8.86;75.51;98762.70;1728898;82;21510;-74
2021/12/03 10:01:39;;;;;;;8.65;5.50;;;;;;;9.23;74.42;98764.34;1690736;83;39710;-73
2021/12/03 10:04:24;;;;;;;10.30;5.70;;;;;;;9.38;73.67;98755.75;1704056;83;20963;-72
2021/12/03 10:12:39;;;;;;;11.33;5.30;;;;;;;9.43;72.27;98749.52;1725991;82;21014;-73
2021/12/03 10:15:28;;;;;;;9.15;5.17;;;;;;;9.53;72.17;98752.05;1720705;82;21836;-75
2021/12/03 10:26:30;;;;;;;10.20;4.33;;;;;;;10.16;70.18;98728.49;1725364;83;21486;-73
2021/12/03 10:34:08;;;;;;;6.78;3.83;;;;;;;10.45;68.61;98739.51;1703095;82;21020;-68
2021/12/03 10:42:41;;;;;;;9.68;4.20;;;;;;;10.59;67.76;98765.77;1725359;83;21832;-73
2021/12/03 10:44:58;;;;;;;8.70;4.53;;;;;;;10.56;67.69;98776.16;1713956;81;21029;-71
2021/12/03 10:47:53;;;;;;;10.55;4.47;;;;;;;10.55;67.88;98769.73;1722139;82;24730;-70
2021/12/03 10:50:23;;;;;;;12.43;4.67;;;;;;;10.50;67.75;98766.73;1723991;83;21486;-71
2021/12/03 10:52:58;;;;;;;9.63;4.70;;;;;;;10.42;67.85;98762.73;1697243;83;21065;-70
2021/12/03 11:36:09;;;;;;;10.15;5.60;;;;;;;10.45;67.78;98744.78;1680321;85;21897;-71
2021/12/03 12:18:53;;;;;;;6.75;3.15;;;;;;;10.20;63.10;98789.18;1704810;83;21886;-70
2021/12/03 13:11:13;;;;;;;8.53;3.75;;;;;;;9.61;58.40;98903.68;1675911;84;21012;-71
2021/12/03 13:34:16;;;;;;;8.03;4.87;;;;;;;8.85;59.63;98920.34;1688837;84;20964;-72
2021/12/03 13:56:04;;;;;;;11.30;9.15;;;;;;;8.41;60.79;98954.32;1672396;85;21056;-72
2021/12/03 14:00:05;;;;;;;8.58;6.25;;;;;;;7.99;61.27;98974.83;1679941;85;21001;-72
2021/12/03 14:08:23;;;;;;;10.38;6.65;;;;;;;7.84;61.71;98964.41;1671008;85;22246;-70
2021/12/03 14:22:41;;;;;;;8.30;6.45;;;;;;;7.40;62.01;99021.73;1671035;85;21861;-72
2021/12/03 14:43:23;;;;;;;19.20;13.93;;;;;;;6.22;64.11;99083.41;1695216;83;21107;-72
2021/12/03 14:56:14;;;;;;;21.10;16.02;;;;;;;5.86;65.04;99090.65;1695309;84;21063;-72
2021/12/03 15:01:41;;;;;;;22.27;16.87;;;;;;;5.66;65.47;99096.65;1708421;83;21782;-71
2021/12/03 15:22:39;;;;;;;34.98;21.93;;;;;;;5.07;67.67;99148.79;1677977;84;21421;-70
2021/12/03 15:33:03;;;;;;;35.65;21.75;;;;;;;4.49;68.91;99187.16;1718881;82;21050;-72
2021/12/03 16:10:35;;;;;;;10.93;8.58;;;;;;;3.27;72.56;99274.09;1710576;83;20988;-71
2021/12/03 16:13:21;;;;;;;8.45;6.78;;;;;;;3.15;72.90;99281.44;1711721;83;21512;-71
2021/12/03 16:51:13;;;;;;;4.37;3.98;;;;;;;2.38;75.60;99352.02;1734415;82;21474;-72
2021/12/03 16:53:34;;;;;;;4.75;4.20;;;;;;;2.36;75.77;99358.26;1717537;82;20997;-73
2021/12/03 16:58:28;;;;;;;6.35;5.72;;;;;;;2.31;76.00;99376.77;1731557;82;20957;-73
2021/12/03 17:01:40;;;;;;;6.30;5.65;;;;;;;2.24;76.00;99378.93;1721462;82;22507;-72
2021/12/03 17:03:32;;;;;;;4.47;4.08;;;;;;;2.19;76.07;99373.61;1698700;82;21435;-74
2021/12/03 17:06:51;;;;;;;5.12;4.62;;;;;;;2.16;76.14;99377.25;1713515;82;21478;-69
2021/12/03 17:08:41;;;;;;;4.87;4.40;;;;;;;2.17;76.25;99384.60;1714024;82;20996;-75
2021/12/03 17:13:59;;;;;;;5.75;5.15;;;;;;;2.18;76.35;99407.11;1658265;85;22271;-71
2021/12/03 17:46:43;;;;;;;6.80;5.47;;;;;;;2.08;77.64;99451.58;1685513;84;21025;-71
2021/12/03 17:48:47;;;;;;;5.55;4.95;;;;;;;2.05;77.65;99463.48;1573805;89;21574;-70
2021/12/03 17:51:36;;;;;;;6.37;5.72;;;;;;;2.03;77.72;99471.39;1634530;85;21102;-71
2021/12/03 17:56:37;;;;;;;5.08;4.42;;;;;;;2.00;77.77;99473.69;1658010;86;21108;-73
2021/12/03 17:59:12;;;;;;;4.15;3.55;;;;;;;2.00;77.78;99481.50;1644224;86;21076;-75
2021/12/03 18:01:44;;;;;;;4.50;3.45;;;;;;;2.03;77.86;99487.45;1654337;86;21041;-75
2021/12/03 18:04:09;;;;;;;4.30;3.67;;;;;;;2.00;77.78;99494.53;1682202;84;21016;-73
2021/12/03 18:55:00;;;;;;;10.18;9.10;;;;;;;1.67;79.11;99553.28;1678370;84;21521;-72
2021/12/03 18:57:28;;;;;;;9.13;8.23;;;;;;;1.68;79.11;99549.75;1677940;85;21007;-73
2021/12/03 19:00:04;;;;;;;9.53;8.58;;;;;;;1.72;79.13;99545.20;1677965;85;22204;-73
2021/12/03 19:02:29;;;;;;;10.18;9.18;;;;;;;1.76;79.13;99551.09;1675411;85;21074;-73